Terminal Aerodrome Forecast
Issued by NWS

Home | Current Version | Previous Version | Text Only | Print | Product List | Glossary Off
Versions: 1 2 3 4 5 6 7 8 9 10 11 12

000
FTUS45 KGGW 111730
TAFSDY
TAF
KSDY 111730Z 1118/1218 31013KT P6SM BKN020
     FM112100 31012KT P6SM BKN035
     FM120000 29005KT P6SM SCT035=

USA.gov is the U.S. government's official web portal to all federal, state and local government web resources and services.